Giard, Iowa
Current Conditions -  °F | °C
As of 9:55 AM on Tuesday 21 Oct 2014 (Local Time) from KPDC Reporting Station
Scattered Clouds Scattered Clouds  
Wind Chill: 42°   Ceiling: Unl
Heat Index: 42°   Visibility: 10mi
Dew Point: 41°   Wind: 3mph
Humidity: 95%   Direction: 90°E
Pressure: 30.23"   Gusts: NA
Location:  43.0056°N, 91.2139°W
Report Text: KPDC 211455Z AUTO 09003KT 10SM SCT001 06/05 A3023 RMK AO2 T00550048
Loading
Personal Weather Stations






























Interactive Weather Map
Tropical Storm Tracking
New forecast layout! Learn more

10-Day Weather Forecast

Advertisements
Track Severe Weather on mobile